createdAt,value
2022-08-17T00:02:05.005Z,12.43
2022-08-17T00:04:51.066Z,13.75
2022-08-17T00:07:17.694Z,13.77
2022-08-17T00:09:44.207Z,16.20
2022-08-17T00:12:42.827Z,15.20
2022-08-17T00:14:57.458Z,16.40
2022-08-17T00:17:24.186Z,16.20
2022-08-17T00:19:50.750Z,12.90
2022-08-17T00:22:33.564Z,14.68
2022-08-17T00:25:05.325Z,16.27
2022-08-17T00:27:32.104Z,16.40
2022-08-17T00:29:58.667Z,15.50
2022-08-17T00:33:12.227Z,16.17
2022-08-17T00:35:16.107Z,16.02
2022-08-17T00:37:42.608Z,18.65
2022-08-17T00:40:12.131Z,14.13
2022-08-17T00:42:39.916Z,15.13
2022-08-17T00:45:09.577Z,18.75
2022-08-17T00:47:36.406Z,14.52
2022-08-17T00:50:05.780Z,13.60
2022-08-17T00:52:37.736Z,16.45
2022-08-17T00:55:06.060Z,14.82
2022-08-17T00:57:40.564Z,15.75
2022-08-17T01:00:14.718Z,17.83
2022-08-17T01:02:44.789Z,14.52
2022-08-17T01:05:25.661Z,11.77
2022-08-17T01:07:52.939Z,14.75
2022-08-17T01:10:59.305Z,13.35
2022-08-17T01:13:17.009Z,15.07
2022-08-17T01:15:50.380Z,15.35
2022-08-17T01:18:17.071Z,18.35
2022-08-17T01:20:51.922Z,18.05
2022-08-17T01:23:21.342Z,14.70
2022-08-17T01:25:51.342Z,13.88
2022-08-17T01:28:33.384Z,14.95
2022-08-17T01:31:08.150Z,17.52
2022-08-17T01:33:35.147Z,16.23
2022-08-17T01:36:02.370Z,15.57
2022-08-17T01:38:31.953Z,19.75
2022-08-17T01:41:02.687Z,16.38
2022-08-17T01:43:34.878Z,16.08
2022-08-17T01:46:03.739Z,15.05
2022-08-17T01:48:37.511Z,20.55
2022-08-17T01:51:07.508Z,15.20
2022-08-17T01:53:42.393Z,18.35
2022-08-17T01:56:12.798Z,16.30
2022-08-17T01:58:41.329Z,16.45
2022-08-17T02:01:09.560Z,14.27
2022-08-17T02:03:37.709Z,17.05
2022-08-17T02:06:06.240Z,16.40
2022-08-17T02:09:01.752Z,16.75
2022-08-17T02:14:03.734Z,13.88
2022-08-17T02:16:37.755Z,14.75
2022-08-17T02:19:11.738Z,13.77
2022-08-17T02:21:41.088Z,16.13
2022-08-17T02:24:11.711Z,16.42
2022-08-17T02:26:38.397Z,16.13
2022-08-17T02:29:05.122Z,15.10
2022-08-17T02:31:31.703Z,14.02
2022-08-17T02:34:04.559Z,17.33
2022-08-17T02:36:34.057Z,18.85
2022-08-17T02:39:11.311Z,14.15
2022-08-17T02:41:38.678Z,17.02
2022-08-17T02:44:06.000Z,14.50
2022-08-17T02:46:33.228Z,13.93
2022-08-17T02:48:59.842Z,15.32
2022-08-17T02:51:27.642Z,18.13
2022-08-17T02:54:35.731Z,17.92
2022-08-17T02:56:41.484Z,17.15
2022-08-17T02:59:07.967Z,16.75
2022-08-17T03:01:34.746Z,15.10
2022-08-17T03:04:01.288Z,16.80
2022-08-17T03:06:29.219Z,16.52
2022-08-17T03:08:55.995Z,18.98
2022-08-17T03:11:22.525Z,16.88
2022-08-17T03:13:50.109Z,18.75
2022-08-17T03:16:16.621Z,17.85
2022-08-17T03:18:43.475Z,18.58
2022-08-17T03:21:10.020Z,17.13
2022-08-17T03:23:41.197Z,16.75
2022-08-17T03:26:12.383Z,15.43
2022-08-17T03:28:42.478Z,16.73
2022-08-17T03:31:09.022Z,17.90
2022-08-17T03:33:35.556Z,16.63
2022-08-17T03:36:02.116Z,19.00
2022-08-17T03:38:28.633Z,17.67
2022-08-17T03:41:08.301Z,16.00
2022-08-17T03:43:37.737Z,18.90
2022-08-17T03:46:27.570Z,16.02
2022-08-17T03:49:17.713Z,16.38
2022-08-17T03:52:02.654Z,17.15
2022-08-17T03:54:47.585Z,17.42
2022-08-17T03:57:14.436Z,17.13
2022-08-17T03:59:41.062Z,16.63
2022-08-17T04:02:15.910Z,16.50
2022-08-17T04:04:42.721Z,18.88
2022-08-17T04:07:09.824Z,16.27
2022-08-17T04:09:37.672Z,16.08
2022-08-17T04:12:05.416Z,17.58
2022-08-17T04:14:51.940Z,21.23
2022-08-17T04:17:26.475Z,18.52
2022-08-17T04:19:54.168Z,20.67
2022-08-17T04:22:33.155Z,19.48
2022-08-17T04:25:16.638Z,16.65
2022-08-17T04:27:43.274Z,17.00
2022-08-17T04:30:10.428Z,16.98
2022-08-17T04:33:06.043Z,18.48
2022-08-17T04:35:41.241Z,17.55
2022-08-17T04:38:09.850Z,18.92
2022-08-17T04:40:55.451Z,18.50
2022-08-17T04:43:24.891Z,15.88
2022-08-17T04:45:57.560Z,16.50
2022-08-17T04:48:29.980Z,19.98
2022-08-17T04:51:14.239Z,17.95
2022-08-17T04:56:16.036Z,15.45
2022-08-17T04:58:45.688Z,17.05
2022-08-17T05:01:12.811Z,16.42
2022-08-17T05:03:39.340Z,17.00
2022-08-17T05:06:06.041Z,16.15
2022-08-17T05:08:32.596Z,17.08
2022-08-17T05:11:00.423Z,16.90
2022-08-17T05:13:29.633Z,16.83
2022-08-17T05:15:58.980Z,20.73
2022-08-17T05:18:25.949Z,15.77
2022-08-17T05:20:53.295Z,16.88
2022-08-17T05:23:22.235Z,16.25
2022-08-17T05:25:51.413Z,17.13
2022-08-17T05:28:24.222Z,15.60
2022-08-17T05:30:56.080Z,16.98
2022-08-17T05:33:26.328Z,15.65
2022-08-17T05:35:55.543Z,15.48
2022-08-17T05:38:24.420Z,15.88
2022-08-17T05:40:51.448Z,16.73
2022-08-17T05:43:29.753Z,17.25
2022-08-17T05:46:13.579Z,15.52
2022-08-17T05:48:49.577Z,15.68
2022-08-17T05:51:53.734Z,16.05
2022-08-17T05:54:47.351Z,14.32
2022-08-17T05:57:31.025Z,14.48
2022-08-17T06:02:58.036Z,15.95
2022-08-17T06:05:49.976Z,11.57
2022-08-17T06:08:26.102Z,15.13
2022-08-17T06:11:16.047Z,16.63
2022-08-17T06:14:21.311Z,11.90
2022-08-17T06:16:54.682Z,11.73
2022-08-17T06:19:54.786Z,13.43
2022-08-17T06:22:25.847Z,10.18
2022-08-17T06:25:05.206Z,13.05
2022-08-17T06:27:45.010Z,12.05
2022-08-17T06:30:14.461Z,10.65
2022-08-17T06:32:44.643Z,10.18
2022-08-17T06:35:15.492Z,10.13
2022-08-17T06:37:59.384Z,10.95
2022-08-17T06:40:57.636Z,10.45
2022-08-17T06:44:49.866Z,11.02
2022-08-17T06:47:28.671Z,9.90
2022-08-17T06:50:09.072Z,10.48
2022-08-17T06:52:47.568Z,9.63
2022-08-17T06:55:23.408Z,9.65
2022-08-17T06:57:54.090Z,9.25
2022-08-17T07:00:24.493Z,9.38
2022-08-17T07:05:32.069Z,13.18
2022-08-17T07:08:18.498Z,9.52
2022-08-17T07:10:50.880Z,10.77
2022-08-17T07:13:44.591Z,11.32
2022-08-17T07:16:24.061Z,8.15
2022-08-17T07:18:54.755Z,10.70
2022-08-17T07:21:46.078Z,11.20
2022-08-17T07:24:37.228Z,8.88
2022-08-17T07:27:21.019Z,9.85
2022-08-17T07:29:49.567Z,8.38
2022-08-17T07:32:20.081Z,7.00
2022-08-17T07:35:15.296Z,16.92
2022-08-17T07:37:55.744Z,9.25
2022-08-17T07:40:26.921Z,9.77
2022-08-17T07:43:02.491Z,10.45
2022-08-17T07:45:50.711Z,9.13
2022-08-17T07:48:21.155Z,9.57
2022-08-17T07:50:49.640Z,8.02
2022-08-17T07:53:25.755Z,7.57
2022-08-17T07:55:53.993Z,8.02
2022-08-17T07:58:23.741Z,8.70
2022-08-17T08:01:11.877Z,7.85
2022-08-17T08:03:43.108Z,6.20
2022-08-17T08:06:22.697Z,7.70
2022-08-17T08:08:55.084Z,10.02
2022-08-17T08:11:35.243Z,6.15
2022-08-17T08:14:28.384Z,5.65
2022-08-17T08:17:09.297Z,6.25
2022-08-17T08:19:36.029Z,7.75
2022-08-17T08:22:07.782Z,9.10
2022-08-17T08:24:53.041Z,8.30
2022-08-17T08:27:40.573Z,6.32
2022-08-17T08:30:14.778Z,7.05
2022-08-17T08:32:54.153Z,5.68
2022-08-17T08:35:31.692Z,6.68
2022-08-17T08:38:29.367Z,6.28
2022-08-17T08:41:02.371Z,6.93
2022-08-17T08:43:56.773Z,7.47
2022-08-17T08:46:45.093Z,8.38
2022-08-17T08:50:02.200Z,8.27
2022-08-17T08:52:42.440Z,9.35
2022-08-17T08:55:34.556Z,7.82
2022-08-17T08:58:08.456Z,8.70
2022-08-17T09:00:58.304Z,6.28
2022-08-17T09:04:12.056Z,8.23
2022-08-17T09:07:23.116Z,6.95
2022-08-17T09:10:16.072Z,7.50
2022-08-17T09:13:12.651Z,5.97
2022-08-17T09:15:47.487Z,7.30
2022-08-17T09:19:00.640Z,7.20
2022-08-17T09:21:23.666Z,7.28
2022-08-17T09:27:01.988Z,5.72
2022-08-17T09:29:34.862Z,7.43
2022-08-17T09:32:09.577Z,5.55
2022-08-17T09:34:54.938Z,5.75
2022-08-17T09:37:43.122Z,6.88
2022-08-17T09:40:17.379Z,8.50
2022-08-17T09:42:55.609Z,6.78
2022-08-17T09:45:32.600Z,7.47
2022-08-17T09:48:02.591Z,7.50
2022-08-17T09:50:55.564Z,7.80
2022-08-17T09:53:25.267Z,6.70
2022-08-17T09:56:17.676Z,6.63
2022-08-17T09:59:00.430Z,7.95
2022-08-17T10:02:04.835Z,9.05
2022-08-17T10:04:44.590Z,8.07
2022-08-17T10:07:21.104Z,7.57
2022-08-17T10:10:14.428Z,7.18
2022-08-17T10:13:12.054Z,8.30
2022-08-17T10:15:50.659Z,8.45
2022-08-17T10:18:37.768Z,6.22
2022-08-17T10:21:30.122Z,6.85
2022-08-17T10:24:25.883Z,10.70
2022-08-17T10:26:57.224Z,9.02
2022-08-17T10:29:49.254Z,9.25
2022-08-17T10:32:26.401Z,6.38
2022-08-17T10:35:26.081Z,5.88
2022-08-17T10:38:12.097Z,6.45
2022-08-17T10:40:57.609Z,5.60
2022-08-17T10:43:37.309Z,9.32
2022-08-17T10:46:30.889Z,6.30
2022-08-17T10:49:35.018Z,6.53
2022-08-17T10:52:36.669Z,8.25
2022-08-17T10:55:18.456Z,7.25
2022-08-17T10:57:48.059Z,6.60
2022-08-17T11:00:40.519Z,9.85
2022-08-17T11:03:23.743Z,7.40
2022-08-17T11:06:17.122Z,6.65
2022-08-17T11:09:07.362Z,6.70
2022-08-17T11:11:53.609Z,10.13
2022-08-17T11:15:00.443Z,10.40
2022-08-17T11:17:49.714Z,9.60
2022-08-17T11:20:57.927Z,6.35
2022-08-17T11:23:42.997Z,6.40
2022-08-17T11:26:26.253Z,7.13
2022-08-17T11:28:59.581Z,7.53
2022-08-17T11:31:38.280Z,7.88
2022-08-17T11:34:27.203Z,9.23
2022-08-17T11:37:31.136Z,8.45
2022-08-17T11:40:21.812Z,9.50
2022-08-17T11:43:13.644Z,8.43
2022-08-17T11:46:02.952Z,9.70
2022-08-17T11:49:00.878Z,7.68
2022-08-17T11:52:01.481Z,6.90
2022-08-17T11:54:33.672Z,6.35
2022-08-17T11:57:26.507Z,6.70
2022-08-17T12:00:30.215Z,6.82
2022-08-17T12:03:42.494Z,8.07
2022-08-17T12:06:31.713Z,7.20
2022-08-17T12:09:13.546Z,6.65
2022-08-17T12:11:56.325Z,6.20
2022-08-17T12:15:05.661Z,6.50
2022-08-17T12:17:40.938Z,7.07
2022-08-17T12:20:23.080Z,6.97
2022-08-17T12:22:53.820Z,6.38
2022-08-17T12:25:33.224Z,5.95
2022-08-17T12:28:06.647Z,7.47
2022-08-17T12:30:35.538Z,6.47
2022-08-17T12:33:02.735Z,8.75
2022-08-17T12:35:34.538Z,7.32
2022-08-17T12:38:03.316Z,6.95
2022-08-17T12:40:32.266Z,6.97
2022-08-17T12:43:18.340Z,6.60
2022-08-17T12:45:46.483Z,7.28
2022-08-17T12:48:21.926Z,5.85
2022-08-17T12:50:50.520Z,5.65
2022-08-17T12:53:23.769Z,6.65
2022-08-17T12:55:51.310Z,7.00
2022-08-17T12:58:24.925Z,6.25
2022-08-17T13:00:56.594Z,5.93
2022-08-17T13:03:35.713Z,6.82
2022-08-17T13:06:13.176Z,6.28
2022-08-17T13:08:43.289Z,6.05
2022-08-17T13:11:20.146Z,6.43
2022-08-17T13:13:54.392Z,7.35
2022-08-17T13:16:24.109Z,8.93
2022-08-17T13:18:53.832Z,12.30
2022-08-17T13:21:22.231Z,8.82
2022-08-17T13:23:55.998Z,7.07
2022-08-17T13:26:29.389Z,6.60
2022-08-17T13:28:59.996Z,8.48
2022-08-17T13:31:28.513Z,8.13
2022-08-17T13:34:19.034Z,6.22
2022-08-17T13:36:46.964Z,7.35
2022-08-17T13:39:24.114Z,13.50
2022-08-17T13:41:54.038Z,8.15
2022-08-17T13:44:40.705Z,9.13
2022-08-17T13:47:19.150Z,8.77
2022-08-17T13:49:49.217Z,8.63
2022-08-17T13:52:43.039Z,7.93
2022-08-17T13:55:21.162Z,9.43
2022-08-17T13:58:06.861Z,6.65
2022-08-17T14:00:36.450Z,6.70
2022-08-17T14:03:04.944Z,8.73
2022-08-17T14:05:32.024Z,6.47
2022-08-17T14:08:02.111Z,10.95
2022-08-17T14:10:37.199Z,8.85
2022-08-17T14:13:05.442Z,9.93
2022-08-17T14:15:54.912Z,7.32
2022-08-17T14:18:55.287Z,12.07
2022-08-17T14:21:08.384Z,9.07
2022-08-17T14:23:36.644Z,7.68
2022-08-17T14:26:03.136Z,9.02
2022-08-17T14:28:29.844Z,9.82
2022-08-17T14:30:56.323Z,9.25
2022-08-17T14:33:24.880Z,10.98
2022-08-17T14:35:54.833Z,7.88
2022-08-17T14:38:21.440Z,8.27
2022-08-17T14:40:48.812Z,9.25
2022-08-17T14:43:16.017Z,8.30
2022-08-17T14:45:43.686Z,9.23
2022-08-17T14:48:10.571Z,9.23
2022-08-17T14:50:41.228Z,10.30
2022-08-17T14:53:10.270Z,8.45
2022-08-17T14:55:39.744Z,7.15
2022-08-17T14:58:06.925Z,9.18
2022-08-17T15:00:33.678Z,8.18
2022-08-17T15:03:01.620Z,10.15
2022-08-17T15:05:34.004Z,8.65
2022-08-17T15:08:01.922Z,10.77
2022-08-17T15:10:29.778Z,7.60
2022-08-17T15:12:57.153Z,7.53
2022-08-17T15:15:24.393Z,7.20
2022-08-17T15:17:51.585Z,8.13
2022-08-17T15:20:21.181Z,9.77
2022-08-17T15:22:55.304Z,7.72
2022-08-17T15:25:22.868Z,8.63
2022-08-17T15:27:49.700Z,7.78
2022-08-17T15:30:16.950Z,10.68
2022-08-17T15:32:51.470Z,11.18
2022-08-17T15:35:27.490Z,9.18
2022-08-17T15:37:57.449Z,9.23
2022-08-17T15:40:25.080Z,8.02
2022-08-17T15:42:51.958Z,9.48
2022-08-17T15:45:22.597Z,8.48
2022-08-17T15:47:49.153Z,8.63
2022-08-17T15:50:16.079Z,8.43
2022-08-17T15:52:47.233Z,7.28
2022-08-17T15:55:15.127Z,7.82
2022-08-17T15:57:41.959Z,8.90
2022-08-17T16:00:10.107Z,9.90
2022-08-17T16:03:14.774Z,8.70
2022-08-17T16:05:27.203Z,9.90
2022-08-17T16:07:58.442Z,9.30
2022-08-17T16:10:34.553Z,7.07
2022-08-17T16:13:03.925Z,11.73
2022-08-17T16:15:33.437Z,7.50
2022-08-17T16:17:59.945Z,9.15
2022-08-17T16:20:26.863Z,8.85
2022-08-17T16:22:54.169Z,8.90
2022-08-17T16:25:51.885Z,10.70
2022-08-17T16:28:12.455Z,7.72
2022-08-17T16:30:39.151Z,8.48
2022-08-17T16:33:05.749Z,8.23
2022-08-17T16:35:32.284Z,9.30
2022-08-17T16:37:58.944Z,6.80
2022-08-17T16:40:27.599Z,9.55
2022-08-17T16:42:56.123Z,9.38
2022-08-17T16:45:28.480Z,8.70
2022-08-17T16:47:55.291Z,8.35
2022-08-17T16:50:23.492Z,8.10
2022-08-17T16:52:50.935Z,8.00
2022-08-17T16:55:19.893Z,8.65
2022-08-17T16:57:50.304Z,7.88
2022-08-17T17:00:19.241Z,8.40
2022-08-17T17:02:48.147Z,10.65
2022-08-17T17:05:57.619Z,9.10
2022-08-17T17:08:30.238Z,7.13
2022-08-17T17:10:59.626Z,6.90
2022-08-17T17:13:35.244Z,9.75
2022-08-17T17:16:22.118Z,11.23
2022-08-17T17:19:15.003Z,11.77
2022-08-17T17:22:11.083Z,9.13
2022-08-17T17:25:06.966Z,8.38
2022-08-17T17:27:48.957Z,13.65
2022-08-17T17:30:20.790Z,10.10
2022-08-17T17:32:55.849Z,8.98
2022-08-17T17:35:28.328Z,9.20
2022-08-17T17:37:57.380Z,7.57
2022-08-17T17:40:31.862Z,7.82
2022-08-17T17:43:20.539Z,8.18
2022-08-17T17:45:55.501Z,8.52
2022-08-17T17:48:22.151Z,8.65
2022-08-17T17:50:57.379Z,11.88
2022-08-17T17:53:45.116Z,9.05
2022-08-17T17:56:43.963Z,9.30
2022-08-17T17:59:21.562Z,8.50
2022-08-17T18:02:04.361Z,8.10
2022-08-17T18:04:32.969Z,9.13
2022-08-17T18:07:27.446Z,8.45
2022-08-17T18:10:19.657Z,9.38
2022-08-17T18:13:28.296Z,8.80
2022-08-17T18:15:56.450Z,11.80
2022-08-17T18:18:44.768Z,8.52
2022-08-17T18:21:19.232Z,12.00
2022-08-17T18:23:48.012Z,9.80
2022-08-17T18:26:34.520Z,8.57
2022-08-17T18:29:11.380Z,8.70
2022-08-17T18:31:38.139Z,11.32
2022-08-17T18:37:16.126Z,12.02
2022-08-17T18:39:46.127Z,11.50
2022-08-17T18:42:26.087Z,9.90
2022-08-17T18:44:55.355Z,10.27
2022-08-17T18:47:28.164Z,10.00
2022-08-17T18:50:18.994Z,11.70
2022-08-17T18:52:48.349Z,10.98
2022-08-17T18:55:22.124Z,10.85
2022-08-17T18:57:50.310Z,9.20
2022-08-17T19:00:38.403Z,9.52
2022-08-17T19:03:18.027Z,10.40
2022-08-17T19:05:52.916Z,9.25
2022-08-17T19:08:28.444Z,12.05
2022-08-17T19:11:08.375Z,10.45
2022-08-17T19:13:47.035Z,11.45
2022-08-17T19:16:20.102Z,10.43
2022-08-17T19:18:53.509Z,13.80
2022-08-17T19:21:28.002Z,11.23
2022-08-17T19:24:05.622Z,12.50
2022-08-17T19:26:50.614Z,10.02
2022-08-17T19:29:32.242Z,9.50
2022-08-17T19:32:00.819Z,10.98
2022-08-17T19:34:33.975Z,13.02
2022-08-17T19:37:21.888Z,10.95
2022-08-17T19:40:00.090Z,9.85
2022-08-17T19:42:47.335Z,13.07
2022-08-17T19:45:59.276Z,9.25
2022-08-17T19:48:47.401Z,13.10
2022-08-17T19:51:21.451Z,11.18
2022-08-17T19:54:05.910Z,14.30
2022-08-17T19:57:05.453Z,11.45
2022-08-17T19:59:48.981Z,10.00
2022-08-17T20:02:33.903Z,10.60
2022-08-17T20:05:06.300Z,13.75
2022-08-17T20:07:55.569Z,14.35
2022-08-17T20:10:54.727Z,13.02
2022-08-17T20:13:44.125Z,11.20
2022-08-17T20:16:11.375Z,11.23
2022-08-17T20:18:49.417Z,13.05
2022-08-17T20:21:24.710Z,11.10
2022-08-17T20:24:06.381Z,13.75
2022-08-17T20:26:59.615Z,11.32
2022-08-17T20:30:02.693Z,14.55
2022-08-17T20:32:35.697Z,11.63
2022-08-17T20:35:17.158Z,11.20
2022-08-17T20:37:56.732Z,12.68
2022-08-17T20:40:55.356Z,11.00
2022-08-17T20:43:35.418Z,10.63
2022-08-17T20:46:06.635Z,12.57
2022-08-17T20:48:41.644Z,11.35
2022-08-17T20:51:27.150Z,11.77
2022-08-17T20:53:53.600Z,12.45
2022-08-17T20:56:45.065Z,12.02
2022-08-17T20:59:20.805Z,10.80
2022-08-17T21:02:02.787Z,13.52
2022-08-17T21:04:50.679Z,11.38
2022-08-17T21:07:40.000Z,11.48
2022-08-17T21:10:25.563Z,12.13
2022-08-17T21:13:37.981Z,14.18
2022-08-17T21:16:29.416Z,13.38
2022-08-17T21:19:04.064Z,14.18
2022-08-17T21:22:08.311Z,17.63
2022-08-17T21:24:55.912Z,14.23
2022-08-17T21:27:25.368Z,13.32
2022-08-17T21:30:13.910Z,13.13
2022-08-17T21:33:25.059Z,11.98
2022-08-17T21:36:10.338Z,14.27
2022-08-17T21:38:56.988Z,14.50
2022-08-17T21:41:29.572Z,13.43
2022-08-17T21:44:05.245Z,16.33
2022-08-17T21:46:37.571Z,15.40
2022-08-17T21:49:13.883Z,16.27
2022-08-17T21:51:53.718Z,16.08
2022-08-17T21:54:32.481Z,13.80
2022-08-17T21:57:01.908Z,14.18
2022-08-17T21:59:31.728Z,14.93
2022-08-17T22:02:04.549Z,12.30
2022-08-17T22:04:34.631Z,12.38
2022-08-17T22:07:04.970Z,14.57
2022-08-17T22:09:44.847Z,11.82
2022-08-17T22:12:20.319Z,15.10
2022-08-17T22:14:56.918Z,13.45
2022-08-17T22:17:35.861Z,12.25
2022-08-17T22:20:09.442Z,14.32
2022-08-17T22:23:20.022Z,14.85
2022-08-17T22:26:09.633Z,11.68
2022-08-17T22:28:46.249Z,14.38
2022-08-17T22:31:18.728Z,15.95
2022-08-17T22:33:49.853Z,13.23
2022-08-17T22:36:26.877Z,14.63
2022-08-17T22:38:58.750Z,14.75
2022-08-17T22:41:37.065Z,14.63
2022-08-17T22:44:23.192Z,16.15
2022-08-17T22:47:16.299Z,15.90
2022-08-17T22:49:54.657Z,17.70
2022-08-17T22:52:59.621Z,13.20
2022-08-17T22:55:46.284Z,18.58
2022-08-17T22:58:35.583Z,14.45
2022-08-17T23:01:32.441Z,19.17
2022-08-17T23:04:01.876Z,12.55
2022-08-17T23:06:29.044Z,12.93
2022-08-17T23:08:57.708Z,14.30
2022-08-17T23:11:42.785Z,13.77
2022-08-17T23:14:16.075Z,14.70
2022-08-17T23:16:42.939Z,13.00
2022-08-17T23:19:15.924Z,13.80
2022-08-17T23:21:45.104Z,11.77
2022-08-17T23:24:26.021Z,13.50
2022-08-17T23:26:53.387Z,15.57
2022-08-17T23:29:21.310Z,15.93
2022-08-17T23:31:49.276Z,16.98
2022-08-17T23:34:18.681Z,14.70
2022-08-17T23:36:52.572Z,16.00
2022-08-17T23:39:27.641Z,15.55
2022-08-17T23:41:56.212Z,12.85
2022-08-17T23:44:23.588Z,17.58
2022-08-17T23:46:53.793Z,15.85
2022-08-17T23:49:20.350Z,17.95
2022-08-17T23:51:48.134Z,15.93
2022-08-17T23:54:21.531Z,14.68
2022-08-17T23:56:49.123Z,15.73
2022-08-17T23:59:17.848Z,15.13
